sensor_id;sensor_type;location;lat;lon;timestamp;temperature;humidity
22984;DHT22;11658;48.908;9.140;2022-12-18T06:01:36;-8.20;99.90
22984;DHT22;11658;48.908;9.140;2022-12-18T06:04:01;-8.30;99.90
22984;DHT22;11658;48.908;9.140;2022-12-18T06:06:28;-8.30;99.90
22984;DHT22;11658;48.908;9.140;2022-12-18T06:08:56;-8.30;99.90
22984;DHT22;11658;48.908;9.140;2022-12-18T06:11:24;-8.30;99.90
22984;DHT22;11658;48.908;9.140;2022-12-18T06:13:51;-8.20;99.90
22984;DHT22;11658;48.908;9.140;2022-12-18T06:16:17;-8.20;99.90
22984;DHT22;11658;48.908;9.140;2022-12-18T06:18:43;-8.30;99.90
22984;DHT22;11658;48.908;9.140;2022-12-18T06:21:08;-8.30;99.90
22984;DHT22;11658;48.908;9.140;2022-12-18T06:23:34;-8.30;99.90
22984;DHT22;11658;48.908;9.140;2022-12-18T06:26:05;-8.30;99.90
22984;DHT22;11658;48.908;9.140;2022-12-18T06:28:31;-8.30;99.90
22984;DHT22;11658;48.908;9.140;2022-12-18T06:30:57;-8.30;99.90
22984;DHT22;11658;48.908;9.140;2022-12-18T06:33:26;-8.40;99.90
22984;DHT22;11658;48.908;9.140;2022-12-18T06:35:52;-8.40;99.90
22984;DHT22;11658;48.908;9.140;2022-12-18T06:38:18;-8.40;99.90
22984;DHT22;11658;48.908;9.140;2022-12-18T06:40:43;-8.40;99.90
22984;DHT22;11658;48.908;9.140;2022-12-18T06:43:09;-8.40;99.90
22984;DHT22;11658;48.908;9.140;2022-12-18T06:45:34;-7.80;99.90
22984;DHT22;11658;48.908;9.140;2022-12-18T06:48:00;-8.40;99.90
22984;DHT22;11658;48.908;9.140;2022-12-18T06:50:26;-8.40;99.90
22984;DHT22;11658;48.908;9.140;2022-12-18T06:52:51;-8.40;99.90
22984;DHT22;11658;48.908;9.140;2022-12-18T06:55:17;-8.50;99.90
22984;DHT22;11658;48.908;9.140;2022-12-18T06:57:43;-8.50;99.90
22984;DHT22;11658;48.908;9.140;2022-12-18T07:00:09;-8.50;99.90
22984;DHT22;11658;48.908;9.140;2022-12-18T07:02:35;-8.50;99.90
22984;DHT22;11658;48.908;9.140;2022-12-18T07:05:01;-8.60;99.90
22984;DHT22;11658;48.908;9.140;2022-12-18T07:07:26;-8.50;99.90
22984;DHT22;11658;48.908;9.140;2022-12-18T07:09:52;-8.50;99.90
22984;DHT22;11658;48.908;9.140;2022-12-18T07:12:18;-8.40;99.90
22984;DHT22;11658;48.908;9.140;2022-12-18T07:14:44;-8.50;99.90
22984;DHT22;11658;48.908;9.140;2022-12-18T07:17:09;-8.40;99.90
22984;DHT22;11658;48.908;9.140;2022-12-18T07:19:35;-8.40;99.90
22984;DHT22;11658;48.908;9.140;2022-12-18T07:22:01;-8.40;99.90
22984;DHT22;11658;48.908;9.140;2022-12-18T07:24:26;-8.30;99.90
22984;DHT22;11658;48.908;9.140;2022-12-18T07:26:52;-8.30;99.90
22984;DHT22;11658;48.908;9.140;2022-12-18T07:29:18;-8.30;99.90
22984;DHT22;11658;48.908;9.140;2022-12-18T07:31:43;-8.20;99.90
22984;DHT22;11658;48.908;9.140;2022-12-18T07:34:13;-8.20;99.90
22984;DHT22;11658;48.908;9.140;2022-12-18T07:36:38;-8.20;99.90
22984;DHT22;11658;48.908;9.140;2022-12-18T07:39:04;-8.20;99.90
22984;DHT22;11658;48.908;9.140;2022-12-18T07:41:30;-8.10;99.90
22984;DHT22;11658;48.908;9.140;2022-12-18T07:43:55;-8.10;99.90
22984;DHT22;11658;48.908;9.140;2022-12-18T07:46:22;-8.00;99.90
22984;DHT22;11658;48.908;9.140;2022-12-18T07:48:48;-8.00;99.90
22984;DHT22;11658;48.908;9.140;2022-12-18T07:51:13;-7.90;99.90
22984;DHT22;11658;48.908;9.140;2022-12-18T07:53:42;-7.90;99.90
22984;DHT22;11658;48.908;9.140;2022-12-18T07:56:10;-7.80;99.90
22984;DHT22;11658;48.908;9.140;2022-12-18T07:58:37;-7.70;99.90
22984;DHT22;11658;48.908;9.140;2022-12-18T08:01:08;-7.70;99.90
22984;DHT22;11658;48.908;9.140;2022-12-18T08:03:35;-7.60;99.90
22984;DHT22;11658;48.908;9.140;2022-12-18T08:06:01;-7.60;99.90
22984;DHT22;11658;48.908;9.140;2022-12-18T08:08:28;-7.50;99.90
22984;DHT22;11658;48.908;9.140;2022-12-18T08:10:54;-7.40;99.90
22984;DHT22;11658;48.908;9.140;2022-12-18T08:13:20;-7.30;99.90
22984;DHT22;11658;48.908;9.140;2022-12-18T08:15:45;-7.20;99.90
22984;DHT22;11658;48.908;9.140;2022-12-18T08:18:11;-7.10;99.90
22984;DHT22;11658;48.908;9.140;2022-12-18T08:20:36;-7.40;99.90
22984;DHT22;11658;48.908;9.140;2022-12-18T08:23:02;-6.90;99.90
22984;DHT22;11658;48.908;9.140;2022-12-18T08:25:27;-6.90;99.90
22984;DHT22;11658;48.908;9.140;2022-12-18T08:27:53;-6.90;99.90
22984;DHT22;11658;48.908;9.140;2022-12-18T08:30:19;-6.90;99.90
22984;DHT22;11658;48.908;9.140;2022-12-18T08:32:44;-6.80;99.90
22984;DHT22;11658;48.908;9.140;2022-12-18T08:35:10;-6.80;99.90
22984;DHT22;11658;48.908;9.140;2022-12-18T08:37:37;-6.70;99.90
22984;DHT22;11658;48.908;9.140;2022-12-18T08:40:03;-6.60;99.90
22984;DHT22;11658;48.908;9.140;2022-12-18T08:42:29;-6.50;99.90
22984;DHT22;11658;48.908;9.140;2022-12-18T08:45:13;-6.50;99.90
22984;DHT22;11658;48.908;9.140;2022-12-18T08:47:38;-6.40;99.90
22984;DHT22;11658;48.908;9.140;2022-12-18T08:50:04;-6.40;99.90
22984;DHT22;11658;48.908;9.140;2022-12-18T08:52:32;-6.30;99.90
22984;DHT22;11658;48.908;9.140;2022-12-18T08:54:57;-6.30;99.90
22984;DHT22;11658;48.908;9.140;2022-12-18T08:57:23;-6.10;99.90
22984;DHT22;11658;48.908;9.140;2022-12-18T08:59:49;-6.10;99.90
22984;DHT22;11658;48.908;9.140;2022-12-18T09:02:14;-6.00;99.90
22984;DHT22;11658;48.908;9.140;2022-12-18T09:04:40;-5.90;99.90
22984;DHT22;11658;48.908;9.140;2022-12-18T09:07:05;-5.80;99.90
22984;DHT22;11658;48.908;9.140;2022-12-18T09:09:31;-5.80;99.90
22984;DHT22;11658;48.908;9.140;2022-12-18T09:11:57;-5.70;99.90
22984;DHT22;11658;48.908;9.140;2022-12-18T09:14:22;-5.60;99.90
22984;DHT22;11658;48.908;9.140;2022-12-18T09:16:48;-5.60;99.90
22984;DHT22;11658;48.908;9.140;2022-12-18T09:19:13;-5.60;99.90
22984;DHT22;11658;48.908;9.140;2022-12-18T09:21:39;-5.50;99.90
22984;DHT22;11658;48.908;9.140;2022-12-18T09:24:05;-5.40;99.90
22984;DHT22;11658;48.908;9.140;2022-12-18T09:26:31;-5.30;99.90
22984;DHT22;11658;48.908;9.140;2022-12-18T09:28:57;-5.30;99.90
22984;DHT22;11658;48.908;9.140;2022-12-18T09:31:23;-5.20;99.90
22984;DHT22;11658;48.908;9.140;2022-12-18T09:33:50;-5.20;99.90
22984;DHT22;11658;48.908;9.140;2022-12-18T09:36:17;-5.00;99.90
22984;DHT22;11658;48.908;9.140;2022-12-18T09:38:43;-5.00;99.90
22984;DHT22;11658;48.908;9.140;2022-12-18T09:43:56;-4.90;99.90
22984;DHT22;11658;48.908;9.140;2022-12-18T09:46:27;-5.00;99.90
22984;DHT22;11658;48.908;9.140;2022-12-18T09:48:56;-5.00;99.90
22984;DHT22;11658;48.908;9.140;2022-12-18T09:51:44;-5.00;99.90
22984;DHT22;11658;48.908;9.140;2022-12-18T09:54:25;-5.00;99.90
22984;DHT22;11658;48.908;9.140;2022-12-18T09:56:51;-5.10;99.90
22984;DHT22;11658;48.908;9.140;2022-12-18T09:59:26;-5.20;99.90
22984;DHT22;11658;48.908;9.140;2022-12-18T10:01:53;-5.30;99.90
22984;DHT22;11658;48.908;9.140;2022-12-18T10:04:19;-5.20;99.90
22984;DHT22;11658;48.908;9.140;2022-12-18T10:09:28;-5.10;99.90
22984;DHT22;11658;48.908;9.140;2022-12-18T10:12:17;-5.00;99.90
22984;DHT22;11658;48.908;9.140;2022-12-18T10:17:34;-4.80;99.90
22984;DHT22;11658;48.908;9.140;2022-12-18T10:20:30;-4.60;99.90
22984;DHT22;11658;48.908;9.140;2022-12-18T10:28:19;-4.00;99.90
22984;DHT22;11658;48.908;9.140;2022-12-18T10:30:45;-3.80;99.90
22984;DHT22;11658;48.908;9.140;2022-12-18T10:33:20;-3.70;99.90
22984;DHT22;11658;48.908;9.140;2022-12-18T10:35:47;-3.80;99.90
22984;DHT22;11658;48.908;9.140;2022-12-18T10:43:21;-3.90;99.90
22984;DHT22;11658;48.908;9.140;2022-12-18T10:48:57;-3.60;99.90
22984;DHT22;11658;48.908;9.140;2022-12-18T10:51:24;-3.50;99.90
22984;DHT22;11658;48.908;9.140;2022-12-18T10:53:56;-3.40;99.90
22984;DHT22;11658;48.908;9.140;2022-12-18T10:56:24;-3.50;99.90
22984;DHT22;11658;48.908;9.140;2022-12-18T10:59:00;-3.30;99.90
22984;DHT22;11658;48.908;9.140;2022-12-18T11:01:26;-3.30;99.90
22984;DHT22;11658;48.908;9.140;2022-12-18T11:06:21;-3.10;99.90
22984;DHT22;11658;48.908;9.140;2022-12-18T11:09:03;-3.00;99.90
22984;DHT22;11658;48.908;9.140;2022-12-18T11:11:29;-2.80;99.90
22984;DHT22;11658;48.908;9.140;2022-12-18T11:14:01;-2.90;99.90
22984;DHT22;11658;48.908;9.140;2022-12-18T11:16:29;-2.90;99.90
22984;DHT22;11658;48.908;9.140;2022-12-18T11:21:53;-2.70;99.90
22984;DHT22;11658;48.908;9.140;2022-12-18T11:24:25;-2.80;99.90
22984;DHT22;11658;48.908;9.140;2022-12-18T11:26:51;-2.90;99.90
22984;DHT22;11658;48.908;9.140;2022-12-18T11:29:22;-2.90;99.90
22984;DHT22;11658;48.908;9.140;2022-12-18T11:31:48;-2.90;99.90
22984;DHT22;11658;48.908;9.140;2022-12-18T11:34:24;-2.80;99.90
22984;DHT22;11658;48.908;9.140;2022-12-18T11:36:53;-2.60;99.90
22984;DHT22;11658;48.908;9.140;2022-12-18T11:39:40;-2.40;99.90
22984;DHT22;11658;48.908;9.140;2022-12-18T11:42:20;-2.30;99.90
22984;DHT22;11658;48.908;9.140;2022-12-18T11:45:18;-2.10;99.90
22984;DHT22;11658;48.908;9.140;2022-12-18T11:47:58;-2.00;99.90
22984;DHT22;11658;48.908;9.140;2022-12-18T11:50:57;-2.00;99.90
22984;DHT22;11658;48.908;9.140;2022-12-18T11:53:25;-1.70;99.90
22984;DHT22;11658;48.908;9.140;2022-12-18T11:58:41;-1.50;99.90
22984;DHT22;11658;48.908;9.140;2022-12-18T12:12:13;-1.70;99.90
22984;DHT22;11658;48.908;9.140;2022-12-18T12:17:49;-1.70;99.90
22984;DHT22;11658;48.908;9.140;2022-12-18T12:23:09;-1.60;99.90
22984;DHT22;11658;48.908;9.140;2022-12-18T12:26:21;-1.50;99.90
22984;DHT22;11658;48.908;9.140;2022-12-18T12:32:12;-1.20;99.90
22984;DHT22;11658;48.908;9.140;2022-12-18T12:37:29;-1.20;99.90
22984;DHT22;11658;48.908;9.140;2022-12-18T12:40:00;-1.10;99.90
22984;DHT22;11658;48.908;9.140;2022-12-18T12:42:33;-1.10;99.90
22984;DHT22;11658;48.908;9.140;2022-12-18T12:45:58;-1.00;99.90
22984;DHT22;11658;48.908;9.140;2022-12-18T12:51:12;-0.90;99.90
22984;DHT22;11658;48.908;9.140;2022-12-18T12:53:39;-0.80;99.90
22984;DHT22;11658;48.908;9.140;2022-12-18T12:56:07;-0.70;99.90
22984;DHT22;11658;48.908;9.140;2022-12-18T12:58:45;-0.70;99.90
22984;DHT22;11658;48.908;9.140;2022-12-18T13:04:12;-0.70;99.90
22984;DHT22;11658;48.908;9.140;2022-12-18T13:07:10;-0.60;99.90
22984;DHT22;11658;48.908;9.140;2022-12-18T13:15:44;-0.30;99.90
22984;DHT22;11658;48.908;9.140;2022-12-18T13:20:44;-0.30;99.90
22984;DHT22;11658;48.908;9.140;2022-12-18T13:25:56;-0.50;99.90
22984;DHT22;11658;48.908;9.140;2022-12-18T13:31:06;-0.50;99.90
22984;DHT22;11658;48.908;9.140;2022-12-18T13:33:39;-0.40;99.90
22984;DHT22;11658;48.908;9.140;2022-12-18T13:36:28;-0.30;99.90
22984;DHT22;11658;48.908;9.140;2022-12-18T13:41:37;-0.10;99.90
22984;DHT22;11658;48.908;9.140;2022-12-18T13:44:12;0.00;99.90
22984;DHT22;11658;48.908;9.140;2022-12-18T13:46:50;-0.10;99.90
22984;DHT22;11658;48.908;9.140;2022-12-18T13:51:56;-0.20;99.90
22984;DHT22;11658;48.908;9.140;2022-12-18T13:54:35;-0.40;99.90
22984;DHT22;11658;48.908;9.140;2022-12-18T13:57:03;-0.60;99.90
22984;DHT22;11658;48.908;9.140;2022-12-18T13:59:39;-0.70;99.90
22984;DHT22;11658;48.908;9.140;2022-12-18T14:02:15;-0.60;99.90
22984;DHT22;11658;48.908;9.140;2022-12-18T14:04:44;-0.50;99.90
22984;DHT22;11658;48.908;9.140;2022-12-18T14:07:14;-0.50;99.90
22984;DHT22;11658;48.908;9.140;2022-12-18T14:09:54;-0.40;99.90
22984;DHT22;11658;48.908;9.140;2022-12-18T14:12:29;-0.50;99.90
22984;DHT22;11658;48.908;9.140;2022-12-18T14:18:01;-0.70;99.90
22984;DHT22;11658;48.908;9.140;2022-12-18T14:20:28;-0.80;99.90
22984;DHT22;11658;48.908;9.140;2022-12-18T14:22:56;-0.90;99.90
22984;DHT22;11658;48.908;9.140;2022-12-18T14:25:24;-1.20;99.90
22984;DHT22;11658;48.908;9.140;2022-12-18T14:30:39;-1.40;99.90
22984;DHT22;11658;48.908;9.140;2022-12-18T14:35:32;-1.50;99.90
22984;DHT22;11658;48.908;9.140;2022-12-18T14:38:28;-1.50;99.90
22984;DHT22;11658;48.908;9.140;2022-12-18T14:40:55;-1.70;99.90
22984;DHT22;11658;48.908;9.140;2022-12-18T14:43:21;-1.90;99.90
22984;DHT22;11658;48.908;9.140;2022-12-18T14:45:47;-1.90;99.90
22984;DHT22;11658;48.908;9.140;2022-12-18T14:48:35;-1.90;99.90
22984;DHT22;11658;48.908;9.140;2022-12-18T14:51:04;-1.90;99.90
22984;DHT22;11658;48.908;9.140;2022-12-18T14:53:32;-1.90;99.90
22984;DHT22;11658;48.908;9.140;2022-12-18T14:55:58;-2.00;99.90
22984;DHT22;11658;48.908;9.140;2022-12-18T14:58:24;-2.00;99.90
22984;DHT22;11658;48.908;9.140;2022-12-18T15:00:50;-2.10;99.90
22984;DHT22;11658;48.908;9.140;2022-12-18T15:03:18;-2.10;99.90
22984;DHT22;11658;48.908;9.140;2022-12-18T15:05:45;-2.10;99.90
22984;DHT22;11658;48.908;9.140;2022-12-18T15:08:35;-2.20;99.90
22984;DHT22;11658;48.908;9.140;2022-12-18T15:11:01;-2.30;99.90
22984;DHT22;11658;48.908;9.140;2022-12-18T15:13:27;-2.40;99.90
22984;DHT22;11658;48.908;9.140;2022-12-18T15:15:54;-2.40;99.90
22984;DHT22;11658;48.908;9.140;2022-12-18T15:18:28;-2.50;99.90
22984;DHT22;11658;48.908;9.140;2022-12-18T15:20:57;-2.40;99.90
22984;DHT22;11658;48.908;9.140;2022-12-18T15:23:36;-2.50;99.90
22984;DHT22;11658;48.908;9.140;2022-12-18T15:26:07;-2.60;99.90
22984;DHT22;11658;48.908;9.140;2022-12-18T15:28:37;-2.50;99.90
22984;DHT22;11658;48.908;9.140;2022-12-18T15:31:22;-2.60;99.90
22984;DHT22;11658;48.908;9.140;2022-12-18T15:36:18;-2.80;99.90
22984;DHT22;11658;48.908;9.140;2022-12-18T15:38:48;-2.90;99.90
22984;DHT22;11658;48.908;9.140;2022-12-18T15:41:19;-2.90;99.90
22984;DHT22;11658;48.908;9.140;2022-12-18T15:43:47;-2.90;99.90
22984;DHT22;11658;48.908;9.140;2022-12-18T15:46:14;-3.00;99.90
22984;DHT22;11658;48.908;9.140;2022-12-18T15:48:42;-3.00;99.90
22984;DHT22;11658;48.908;9.140;2022-12-18T15:51:18;-3.00;99.90
22984;DHT22;11658;48.908;9.140;2022-12-18T15:53:47;-3.00;99.90
22984;DHT22;11658;48.908;9.140;2022-12-18T15:56:15;-3.10;99.90
22984;DHT22;11658;48.908;9.140;2022-12-18T15:58:59;-3.10;99.90
22984;DHT22;11658;48.908;9.140;2022-12-18T16:01:27;-3.10;99.90
22984;DHT22;11658;48.908;9.140;2022-12-18T16:03:54;-3.10;99.90
22984;DHT22;11658;48.908;9.140;2022-12-18T16:06:20;-3.20;99.90
22984;DHT22;11658;48.908;9.140;2022-12-18T16:08:46;-3.20;99.90
22984;DHT22;11658;48.908;9.140;2022-12-18T16:11:26;-3.20;99.90
22984;DHT22;11658;48.908;9.140;2022-12-18T16:14:06;-3.20;99.90
22984;DHT22;11658;48.908;9.140;2022-12-18T16:16:31;-3.30;99.90
22984;DHT22;11658;48.908;9.140;2022-12-18T16:18:57;-3.30;99.90
22984;DHT22;11658;48.908;9.140;2022-12-18T16:21:22;-3.30;99.90
22984;DHT22;11658;48.908;9.140;2022-12-18T16:23:48;-3.20;99.90
22984;DHT22;11658;48.908;9.140;2022-12-18T16:26:13;-3.30;99.90
22984;DHT22;11658;48.908;9.140;2022-12-18T16:28:39;-3.30;99.90
22984;DHT22;11658;48.908;9.140;2022-12-18T16:31:05;-3.30;99.90
22984;DHT22;11658;48.908;9.140;2022-12-18T16:33:30;-3.30;99.90
22984;DHT22;11658;48.908;9.140;2022-12-18T16:35:56;-3.30;99.90
22984;DHT22;11658;48.908;9.140;2022-12-18T16:38:21;-3.40;99.90
22984;DHT22;11658;48.908;9.140;2022-12-18T16:40:47;-3.40;99.90
22984;DHT22;11658;48.908;9.140;2022-12-18T16:43:31;-3.40;99.90
22984;DHT22;11658;48.908;9.140;2022-12-18T16:45:58;-3.40;99.90
22984;DHT22;11658;48.908;9.140;2022-12-18T16:48:24;-3.40;99.90
22984;DHT22;11658;48.908;9.140;2022-12-18T16:50:49;-3.40;99.90
22984;DHT22;11658;48.908;9.140;2022-12-18T16:53:15;-3.30;99.90
22984;DHT22;11658;48.908;9.140;2022-12-18T16:55:41;-3.30;99.90
22984;DHT22;11658;48.908;9.140;2022-12-18T16:58:06;-3.40;99.90
22984;DHT22;11658;48.908;9.140;2022-12-18T17:00:32;-3.30;99.90
22984;DHT22;11658;48.908;9.140;2022-12-18T17:02:57;-3.30;99.90
22984;DHT22;11658;48.908;9.140;2022-12-18T17:05:23;-3.30;99.90
22984;DHT22;11658;48.908;9.140;2022-12-18T17:07:48;-3.50;99.90
22984;DHT22;11658;48.908;9.140;2022-12-18T17:10:14;-3.30;99.90
22984;DHT22;11658;48.908;9.140;2022-12-18T17:12:40;-3.30;99.90
22984;DHT22;11658;48.908;9.140;2022-12-18T17:15:07;-3.20;99.90
22984;DHT22;11658;48.908;9.140;2022-12-18T17:17:33;-3.20;99.90
22984;DHT22;11658;48.908;9.140;2022-12-18T17:20:00;-3.20;99.90
22984;DHT22;11658;48.908;9.140;2022-12-18T17:22:26;-3.20;99.90
22984;DHT22;11658;48.908;9.140;2022-12-18T17:24:52;-3.20;99.90
22984;DHT22;11658;48.908;9.140;2022-12-18T17:27:17;-3.20;99.90
22984;DHT22;11658;48.908;9.140;2022-12-18T17:29:43;-3.20;99.90
22984;DHT22;11658;48.908;9.140;2022-12-18T17:32:09;-3.30;99.90
22984;DHT22;11658;48.908;9.140;2022-12-18T17:34:34;-3.30;99.90
22984;DHT22;11658;48.908;9.140;2022-12-18T17:37:01;-3.30;99.90
22984;DHT22;11658;48.908;9.140;2022-12-18T17:39:26;-3.20;99.90
22984;DHT22;11658;48.908;9.140;2022-12-18T17:41:53;-3.30;99.90
22984;DHT22;11658;48.908;9.140;2022-12-18T17:44:18;-4.00;99.90
22984;DHT22;11658;48.908;9.140;2022-12-18T17:46:45;-3.30;99.90
22984;DHT22;11658;48.908;9.140;2022-12-18T17:49:11;-3.30;99.90
22984;DHT22;11658;48.908;9.140;2022-12-18T17:51:36;-3.20;99.90
22984;DHT22;11658;48.908;9.140;2022-12-18T17:54:02;-3.10;99.90
22984;DHT22;11658;48.908;9.140;2022-12-18T17:56:28;-3.10;99.90
22984;DHT22;11658;48.908;9.140;2022-12-18T17:58:54;-3.30;99.90
22984;DHT22;11658;48.908;9.140;2022-12-18T18:01:22;-3.30;99.90
22984;DHT22;11658;48.908;9.140;2022-12-18T18:03:48;-3.30;99.90
22984;DHT22;11658;48.908;9.140;2022-12-18T18:06:14;-3.40;99.90
22984;DHT22;11658;48.908;9.140;2022-12-18T18:08:40;-3.30;99.90
22984;DHT22;11658;48.908;9.140;2022-12-18T18:11:09;-3.30;99.90
22984;DHT22;11658;48.908;9.140;2022-12-18T18:13:54;-3.40;99.90
22984;DHT22;11658;48.908;9.140;2022-12-18T18:16:29;-3.30;99.90
22984;DHT22;11658;48.908;9.140;2022-12-18T18:18:57;-3.30;99.90
22984;DHT22;11658;48.908;9.140;2022-12-18T18:21:22;-3.20;99.90
22984;DHT22;11658;48.908;9.140;2022-12-18T18:23:48;-3.10;99.90
22984;DHT22;11658;48.908;9.140;2022-12-18T18:26:14;-3.20;99.90
22984;DHT22;11658;48.908;9.140;2022-12-18T18:28:39;-3.20;99.90
22984;DHT22;11658;48.908;9.140;2022-12-18T18:31:07;-3.20;99.90
22984;DHT22;11658;48.908;9.140;2022-12-18T18:33:33;-3.20;99.90
22984;DHT22;11658;48.908;9.140;2022-12-18T18:35:59;-3.30;99.90
22984;DHT22;11658;48.908;9.140;2022-12-18T18:38:25;-3.20;99.90
22984;DHT22;11658;48.908;9.140;2022-12-18T18:40:58;-3.20;99.90
22984;DHT22;11658;48.908;9.140;2022-12-18T18:43:24;-3.20;99.90
22984;DHT22;11658;48.908;9.140;2022-12-18T18:45:57;-3.20;99.90
22984;DHT22;11658;48.908;9.140;2022-12-18T18:48:24;-3.20;99.90
22984;DHT22;11658;48.908;9.140;2022-12-18T18:50:57;-3.30;99.90
22984;DHT22;11658;48.908;9.140;2022-12-18T18:53:23;-3.30;99.90
22984;DHT22;11658;48.908;9.140;2022-12-18T18:55:48;-3.20;99.90
22984;DHT22;11658;48.908;9.140;2022-12-18T18:58:14;-3.10;99.90
22984;DHT22;11658;48.908;9.140;2022-12-18T19:00:39;-3.10;99.90
22984;DHT22;11658;48.908;9.140;2022-12-18T19:03:05;-3.00;99.90
22984;DHT22;11658;48.908;9.140;2022-12-18T19:05:31;-3.00;99.90
22984;DHT22;11658;48.908;9.140;2022-12-18T19:07:57;-3.00;99.90
22984;DHT22;11658;48.908;9.140;2022-12-18T19:10:23;-3.00;99.90
22984;DHT22;11658;48.908;9.140;2022-12-18T19:12:48;-3.10;99.90
22984;DHT22;11658;48.908;9.140;2022-12-18T19:15:33;-3.10;99.90
22984;DHT22;11658;48.908;9.140;2022-12-18T19:17:59;-3.10;99.90
22984;DHT22;11658;48.908;9.140;2022-12-18T19:20:25;-3.10;99.90
22984;DHT22;11658;48.908;9.140;2022-12-18T19:22:50;-3.10;99.90
22984;DHT22;11658;48.908;9.140;2022-12-18T19:25:16;-3.10;99.90
22984;DHT22;11658;48.908;9.140;2022-12-18T19:27:42;-3.10;99.90
22984;DHT22;11658;48.908;9.140;2022-12-18T19:30:08;-3.10;99.90
22984;DHT22;11658;48.908;9.140;2022-12-18T19:32:34;-3.10;99.90
22984;DHT22;11658;48.908;9.140;2022-12-18T19:35:00;-3.10;99.90
22984;DHT22;11658;48.908;9.140;2022-12-18T19:37:25;-3.20;99.90
22984;DHT22;11658;48.908;9.140;2022-12-18T19:39:51;-3.20;99.90
22984;DHT22;11658;48.908;9.140;2022-12-18T19:42:16;-3.20;99.90
22984;DHT22;11658;48.908;9.140;2022-12-18T19:44:42;-3.10;99.90
22984;DHT22;11658;48.908;9.140;2022-12-18T19:47:07;-3.20;99.90
22984;DHT22;11658;48.908;9.140;2022-12-18T19:49:33;-3.10;99.90
22984;DHT22;11658;48.908;9.140;2022-12-18T19:51:59;-3.00;99.90
22984;DHT22;11658;48.908;9.140;2022-12-18T19:54:24;-3.00;99.90
22984;DHT22;11658;48.908;9.140;2022-12-18T19:56:50;-3.00;99.90
22984;DHT22;11658;48.908;9.140;2022-12-18T19:59:17;-3.00;99.90
22984;DHT22;11658;48.908;9.140;2022-12-18T20:01:42;-3.00;99.90
22984;DHT22;11658;48.908;9.140;2022-12-18T20:04:08;-2.90;99.90
22984;DHT22;11658;48.908;9.140;2022-12-18T20:06:44;-2.80;99.90
22984;DHT22;11658;48.908;9.140;2022-12-18T20:09:10;-2.80;99.90
22984;DHT22;11658;48.908;9.140;2022-12-18T20:11:36;-2.90;99.90
22984;DHT22;11658;48.908;9.140;2022-12-18T20:14:02;-2.90;99.90
22984;DHT22;11658;48.908;9.140;2022-12-18T20:16:28;-2.80;99.90
22984;DHT22;11658;48.908;9.140;2022-12-18T20:18:54;-2.90;99.90
22984;DHT22;11658;48.908;9.140;2022-12-18T20:21:20;-2.80;99.90
22984;DHT22;11658;48.908;9.140;2022-12-18T20:23:46;-2.80;99.90
22984;DHT22;11658;48.908;9.140;2022-12-18T20:26:11;-2.90;99.90
22984;DHT22;11658;48.908;9.140;2022-12-18T20:28:37;-2.80;99.90
22984;DHT22;11658;48.908;9.140;2022-12-18T20:31:05;-2.90;99.90
22984;DHT22;11658;48.908;9.140;2022-12-18T20:33:33;-2.90;99.90
22984;DHT22;11658;48.908;9.140;2022-12-18T20:36:03;-2.80;99.90
22984;DHT22;11658;48.908;9.140;2022-12-18T20:38:30;-2.90;99.90
22984;DHT22;11658;48.908;9.140;2022-12-18T20:40:56;-2.90;99.90
22984;DHT22;11658;48.908;9.140;2022-12-18T20:43:22;-2.90;99.90
22984;DHT22;11658;48.908;9.140;2022-12-18T20:45:47;-2.90;99.90
22984;DHT22;11658;48.908;9.140;2022-12-18T20:48:13;-2.90;99.90
22984;DHT22;11658;48.908;9.140;2022-12-18T20:50:38;-2.80;99.90
22984;DHT22;11658;48.908;9.140;2022-12-18T20:53:04;-2.70;99.90
22984;DHT22;11658;48.908;9.140;2022-12-18T20:55:30;-2.80;99.90
22984;DHT22;11658;48.908;9.140;2022-12-18T20:57:55;-2.70;99.90
22984;DHT22;11658;48.908;9.140;2022-12-18T21:00:21;-2.70;99.90
22984;DHT22;11658;48.908;9.140;2022-12-18T21:02:47;-2.80;99.90
22984;DHT22;11658;48.908;9.140;2022-12-18T21:05:13;-2.90;99.90
22984;DHT22;11658;48.908;9.140;2022-12-18T21:07:38;-2.80;99.90
22984;DHT22;11658;48.908;9.140;2022-12-18T21:10:04;-2.80;99.90
22984;DHT22;11658;48.908;9.140;2022-12-18T21:12:30;-2.80;99.90
22984;DHT22;11658;48.908;9.140;2022-12-18T21:14:59;-2.70;99.90
22984;DHT22;11658;48.908;9.140;2022-12-18T21:17:25;-2.60;99.90
22984;DHT22;11658;48.908;9.140;2022-12-18T21:19:51;-2.60;99.90
22984;DHT22;11658;48.908;9.140;2022-12-18T21:22:17;-2.60;99.90
22984;DHT22;11658;48.908;9.140;2022-12-18T21:24:43;-2.70;99.90
22984;DHT22;11658;48.908;9.140;2022-12-18T21:27:09;-2.70;99.90
22984;DHT22;11658;48.908;9.140;2022-12-18T21:29:34;-2.70;99.90
22984;DHT22;11658;48.908;9.140;2022-12-18T21:32:01;-2.70;99.90
22984;DHT22;11658;48.908;9.140;2022-12-18T21:34:28;-2.60;99.90
22984;DHT22;11658;48.908;9.140;2022-12-18T21:36:55;-2.50;99.90
22984;DHT22;11658;48.908;9.140;2022-12-18T21:39:22;-2.50;99.90
22984;DHT22;11658;48.908;9.140;2022-12-18T21:41:47;-2.40;99.90
22984;DHT22;11658;48.908;9.140;2022-12-18T21:44:32;-2.40;99.90
22984;DHT22;11658;48.908;9.140;2022-12-18T21:46:57;-2.30;99.90
22984;DHT22;11658;48.908;9.140;2022-12-18T21:49:23;-2.30;99.90
22984;DHT22;11658;48.908;9.140;2022-12-18T21:51:51;-2.50;99.90
22984;DHT22;11658;48.908;9.140;2022-12-18T21:54:18;-2.60;99.90
22984;DHT22;11658;48.908;9.140;2022-12-18T21:57:00;-2.60;99.90
22984;DHT22;11658;48.908;9.140;2022-12-18T21:59:27;-2.70;99.90
